createdAt,value
2018-04-17T17:59:45.470Z,10.30
2018-04-17T18:02:17.836Z,8.17
2018-04-17T18:04:50.150Z,10.10
2018-04-17T18:07:22.419Z,12.33
2018-04-17T18:09:54.765Z,10.73
2018-04-17T18:14:37.698Z,12.97
2018-04-17T18:17:09.863Z,10.33
2018-04-17T18:19:42.241Z,13.67
2018-04-17T18:22:14.447Z,10.30
2018-04-17T18:24:46.694Z,10.73
2018-04-17T18:27:19.876Z,8.33
2018-04-17T18:29:52.029Z,32.93
2018-04-17T18:32:24.353Z,40.77
2018-04-17T18:34:56.565Z,53.13
2018-04-17T18:37:28.862Z,40.00
2018-04-17T18:40:01.178Z,41.17
2018-04-17T18:42:33.586Z,32.90
2018-04-17T18:45:06.636Z,35.90
2018-04-17T18:47:38.882Z,36.93
2018-04-17T18:50:11.158Z,41.77
2018-04-17T18:52:44.055Z,44.33
2018-04-17T18:55:17.053Z,39.03
2018-04-17T18:57:50.126Z,45.43
2018-04-17T19:00:22.344Z,45.43
2018-04-17T19:02:54.553Z,44.13
2018-04-17T19:05:26.826Z,39.77
2018-04-17T19:07:59.202Z,42.27
2018-04-17T19:10:31.529Z,41.07
2018-04-17T19:13:03.639Z,39.60
2018-04-17T19:15:35.960Z,37.33
2018-04-17T19:18:08.439Z,39.37
2018-04-17T19:20:40.800Z,50.87
2018-04-17T19:23:13.055Z,35.93
2018-04-17T19:25:45.883Z,38.00
2018-04-17T19:28:18.896Z,54.27
2018-04-17T19:30:51.123Z,59.77
2018-04-17T19:33:23.523Z,24.97
2018-04-17T19:35:55.814Z,26.83
2018-04-17T19:38:28.131Z,26.23
2018-04-17T19:41:01.225Z,27.40
2018-04-17T19:43:33.549Z,23.57
2018-04-17T19:46:05.703Z,35.27
2018-04-17T19:48:37.743Z,24.23
2018-04-17T19:51:09.873Z,19.80
2018-04-17T19:53:42.197Z,18.00
2018-04-17T19:56:14.306Z,22.33
2018-04-17T19:58:46.454Z,24.00
2018-04-17T20:01:18.626Z,29.97
2018-04-17T20:03:51.687Z,31.00
2018-04-17T20:06:23.948Z,20.93
2018-04-17T20:08:56.177Z,18.20
2018-04-17T20:11:28.450Z,21.70
2018-04-17T20:14:00.615Z,16.70
2018-04-17T20:16:32.762Z,17.50
2018-04-17T20:19:05.006Z,21.10
2018-04-17T20:21:37.074Z,17.50
2018-04-17T20:24:09.271Z,18.97
